ANA223 RJTT-EDDF
Flight info
| Callsign | ANA223 |
|---|---|
| Flight time | N/A |
| Altitude | 33000 |
| Route | INUBO Y808 PUTER/N0501F340 A590 POXED/N0496F350 A590 POWAL DCT HEDMI R338 MARCC DCT JUJXI/N0498F370 DCT 71N160W DCT AGMIF DCT 79N120W 80N100W 80N080W/N0499F390 DCT BUDUM/M085F390 DCT 80N060W 78N040W 76N030W 73N020W 68N010W DCT RIXUN/N0490F390 DCT MOCHA/N0490F410 DCT FORTY DCT ODMIX DCT CUTEL DCT VENAS/N0491F400 DCT TOPPA/N0491F410 DCT AMGOD DCT PETIK DCT SOGPO DCT DIXAT DIXAT1A |
| Aircraft | B789/H-SDE1E2E3FGHIJ2J3J4J5M1RWXY/LB1D1 |
Departure
| Time | N/A |
|---|---|
| Airport | Tokyo Haneda International Airport (RJTT) |
Arrival
| Time | 2026-05-07 15:10 |
|---|---|
| Airport | Frankfurt Main Airport (EDDF) |
| Time | Latitude | Longitude | Altitude | Speed | Heading |
|---|---|---|---|---|---|
| 2026-05-07 14:16 | 54.15694 | 3.67640 | 34354 ft | 457 kts | 184° |
| 2026-05-07 14:16 | 54.09309 | 3.66676 | 34508 ft | 463 kts | 184° |
| 2026-05-07 14:16 | 54.06103 | 3.66184 | 34717 ft | 463 kts | 184° |
| 2026-05-07 14:17 | 54.02893 | 3.65674 | 34917 ft | 463 kts | 184° |
| 2026-05-07 14:17 | 53.96434 | 3.64680 | 34940 ft | 465 kts | 184° |
| 2026-05-07 14:18 | 53.90040 | 3.63698 | 34940 ft | 466 kts | 184° |
| 2026-05-07 14:18 | 53.83468 | 3.62691 | 35124 ft | 476 kts | 184° |
| 2026-05-07 14:19 | 53.76814 | 3.61673 | 35137 ft | 481 kts | 184° |
| 2026-05-07 14:19 | 53.70154 | 3.60659 | 35146 ft | 479 kts | 184° |
| 2026-05-07 14:20 | 53.63554 | 3.59658 | 35146 ft | 479 kts | 184° |
| 2026-05-07 14:20 | 53.56901 | 3.58748 | 35150 ft | 478 kts | 177° |
| 2026-05-07 14:20 | 53.53608 | 3.59348 | 35167 ft | 476 kts | 164° |
| 2026-05-07 14:21 | 53.50478 | 3.61124 | 35186 ft | 475 kts | 152° |
| 2026-05-07 14:21 | 53.47662 | 3.63982 | 35188 ft | 473 kts | 140° |
| 2026-05-07 14:21 | 53.45269 | 3.67750 | 35154 ft | 472 kts | 130° |
| 2026-05-07 14:22 | 53.41030 | 3.76154 | 35149 ft | 471 kts | 131° |
| 2026-05-07 14:22 | 53.36502 | 3.84083 | 35136 ft | 471 kts | 133° |
| 2026-05-07 14:23 | 53.32098 | 3.92172 | 35131 ft | 470 kts | 131° |
| 2026-05-07 14:23 | 53.27629 | 4.00177 | 35122 ft | 472 kts | 132° |
| 2026-05-07 14:24 | 53.23160 | 4.08218 | 35122 ft | 473 kts | 132° |
| 2026-05-07 14:24 | 53.18662 | 4.16271 | 35115 ft | 474 kts | 132° |
| 2026-05-07 14:25 | 53.14169 | 4.24284 | 35112 ft | 472 kts | 132° |
| 2026-05-07 14:25 | 53.10416 | 4.30967 | 35114 ft | 472 kts | 132° |
| 2026-05-07 14:26 | 53.05953 | 4.38876 | 35110 ft | 471 kts | 133° |
| 2026-05-07 14:26 | 53.01458 | 4.46826 | 35111 ft | 473 kts | 133° |
| 2026-05-07 14:27 | 52.96912 | 4.54836 | 35111 ft | 474 kts | 133° |
| 2026-05-07 14:27 | 52.92412 | 4.62740 | 35116 ft | 476 kts | 133° |
| 2026-05-07 14:28 | 52.87866 | 4.70697 | 35111 ft | 476 kts | 133° |
| 2026-05-07 14:28 | 52.83302 | 4.78663 | 35114 ft | 477 kts | 133° |
| 2026-05-07 14:29 | 52.78731 | 4.86612 | 35110 ft | 477 kts | 134° |
| 2026-05-07 14:29 | 52.74149 | 4.94555 | 35101 ft | 477 kts | 134° |
| 2026-05-07 14:30 | 52.69568 | 5.02471 | 35092 ft | 477 kts | 134° |
| 2026-05-07 14:30 | 52.64982 | 5.10370 | 35082 ft | 478 kts | 134° |
| 2026-05-07 14:31 | 52.60369 | 5.18289 | 35076 ft | 480 kts | 134° |
| 2026-05-07 14:31 | 52.55738 | 5.26214 | 35076 ft | 481 kts | 135° |
| 2026-05-07 14:32 | 52.51108 | 5.34111 | 35080 ft | 487 kts | 135° |
| 2026-05-07 14:32 | 52.46360 | 5.42183 | 35086 ft | 489 kts | 135° |
| 2026-05-07 14:33 | 52.41654 | 5.50158 | 35084 ft | 490 kts | 135° |
| 2026-05-07 14:33 | 52.36908 | 5.58171 | 35085 ft | 490 kts | 135° |
| 2026-05-07 14:34 | 52.32161 | 5.66164 | 35080 ft | 490 kts | 135° |
| 2026-05-07 14:34 | 52.27410 | 5.74135 | 35072 ft | 489 kts | 135° |
| 2026-05-07 14:35 | 52.22653 | 5.82090 | 35076 ft | 489 kts | 135° |
| 2026-05-07 14:35 | 52.17898 | 5.90016 | 35075 ft | 489 kts | 135° |
| 2026-05-07 14:36 | 52.13142 | 5.97919 | 35071 ft | 489 kts | 135° |
| 2026-05-07 14:36 | 52.08361 | 6.05835 | 35050 ft | 491 kts | 136° |
| 2026-05-07 14:37 | 52.03557 | 6.13765 | 35049 ft | 493 kts | 136° |
| 2026-05-07 14:37 | 51.96319 | 6.25576 | 35048 ft | 490 kts | 141° |
| 2026-05-07 14:38 | 51.91025 | 6.32528 | 35044 ft | 491 kts | 142° |
| 2026-05-07 14:38 | 51.85714 | 6.39466 | 35041 ft | 491 kts | 142° |
| 2026-05-07 14:39 | 51.80389 | 6.46407 | 35042 ft | 491 kts | 142° |
| 2026-05-07 14:39 | 51.75066 | 6.53314 | 35040 ft | 491 kts | 142° |
| 2026-05-07 14:40 | 51.69739 | 6.60214 | 35043 ft | 491 kts | 142° |
| 2026-05-07 14:40 | 51.64404 | 6.67096 | 35039 ft | 491 kts | 142° |
| 2026-05-07 14:41 | 51.59081 | 6.73945 | 35039 ft | 492 kts | 142° |
| 2026-05-07 14:41 | 51.53748 | 6.80784 | 35042 ft | 493 kts | 142° |
| 2026-05-07 14:42 | 51.48373 | 6.87657 | 35057 ft | 494 kts | 142° |
| 2026-05-07 14:42 | 51.43029 | 6.94469 | 34378 ft | 490 kts | 142° |
| 2026-05-07 14:43 | 51.40342 | 6.97885 | 33482 ft | 493 kts | 142° |
| 2026-05-07 14:43 | 51.37669 | 7.01280 | 32808 ft | 489 kts | 142° |
| 2026-05-07 14:43 | 51.35004 | 7.04659 | 32081 ft | 486 kts | 142° |
| 2026-05-07 14:43 | 51.32361 | 7.08004 | 31350 ft | 485 kts | 142° |
| 2026-05-07 14:44 | 51.29754 | 7.11299 | 30591 ft | 483 kts | 142° |
| 2026-05-07 14:44 | 51.27060 | 7.14607 | 29771 ft | 481 kts | 148° |
| 2026-05-07 14:44 | 51.24151 | 7.17149 | 29102 ft | 473 kts | 154° |
| 2026-05-07 14:44 | 51.21234 | 7.19476 | 28476 ft | 467 kts | 155° |
| 2026-05-07 14:45 | 51.18372 | 7.21731 | 27873 ft | 462 kts | 155° |
| 2026-05-07 14:45 | 51.15515 | 7.23986 | 27248 ft | 457 kts | 155° |
| 2026-05-07 14:45 | 51.12649 | 7.26260 | 26659 ft | 452 kts | 155° |
| 2026-05-07 14:45 | 51.09920 | 7.28546 | 26070 ft | 447 kts | 153° |
| 2026-05-07 14:46 | 51.07123 | 7.30835 | 25474 ft | 448 kts | 154° |
| 2026-05-07 14:46 | 51.04363 | 7.33033 | 25063 ft | 449 kts | 154° |
| 2026-05-07 14:46 | 51.01565 | 7.35331 | 24245 ft | 451 kts | 153° |
| 2026-05-07 14:46 | 50.98853 | 7.37611 | 23802 ft | 443 kts | 153° |
| 2026-05-07 14:47 | 50.96129 | 7.39862 | 23236 ft | 439 kts | 154° |
| 2026-05-07 14:47 | 50.93420 | 7.42062 | 22686 ft | 436 kts | 154° |
| 2026-05-07 14:47 | 50.90701 | 7.44282 | 22150 ft | 435 kts | 154° |
| 2026-05-07 14:47 | 50.88057 | 7.46457 | 21631 ft | 434 kts | 154° |
| 2026-05-07 14:48 | 50.85376 | 7.48657 | 21102 ft | 432 kts | 154° |
| 2026-05-07 14:48 | 50.82714 | 7.50828 | 20582 ft | 429 kts | 154° |
| 2026-05-07 14:48 | 50.80059 | 7.52988 | 20050 ft | 426 kts | 154° |
| 2026-05-07 14:48 | 50.77441 | 7.55123 | 19542 ft | 423 kts | 154° |
| 2026-05-07 14:49 | 50.74827 | 7.57253 | 19022 ft | 420 kts | 154° |
| 2026-05-07 14:49 | 50.72323 | 7.59286 | 18529 ft | 417 kts | 154° |
| 2026-05-07 14:49 | 50.69743 | 7.61379 | 17984 ft | 415 kts | 154° |
| 2026-05-07 14:49 | 50.67191 | 7.63448 | 17481 ft | 411 kts | 154° |
| 2026-05-07 14:50 | 50.64662 | 7.65494 | 16980 ft | 408 kts | 154° |
| 2026-05-07 14:50 | 50.62146 | 7.67528 | 16482 ft | 406 kts | 154° |
| 2026-05-07 14:50 | 50.59643 | 7.69551 | 16073 ft | 402 kts | 154° |
| 2026-05-07 14:50 | 50.57171 | 7.71544 | 16000 ft | 398 kts | 154° |
| 2026-05-07 14:51 | 50.54683 | 7.73545 | 15691 ft | 408 kts | 154° |
| 2026-05-07 14:51 | 50.52127 | 7.75600 | 14774 ft | 414 kts | 154° |
| 2026-05-07 14:51 | 50.49571 | 7.77657 | 14028 ft | 411 kts | 154° |
| 2026-05-07 14:51 | 50.47061 | 7.79672 | 13573 ft | 399 kts | 154° |
| 2026-05-07 14:52 | 50.44624 | 7.81623 | 13179 ft | 389 kts | 154° |
| 2026-05-07 14:52 | 50.42355 | 7.83913 | 12825 ft | 386 kts | 142° |
| 2026-05-07 14:52 | 50.40258 | 7.86550 | 12460 ft | 387 kts | 142° |
| 2026-05-07 14:52 | 50.38154 | 7.89175 | 12086 ft | 386 kts | 142° |
| 2026-05-07 14:53 | 50.36054 | 7.91775 | 11733 ft | 384 kts | 142° |
| 2026-05-07 14:53 | 50.33961 | 7.94360 | 11376 ft | 382 kts | 142° |
| 2026-05-07 14:53 | 50.31877 | 7.96937 | 10997 ft | 380 kts | 142° |
| 2026-05-07 14:53 | 50.29809 | 7.99494 | 10642 ft | 379 kts | 142° |
| 2026-05-07 14:54 | 50.27744 | 8.02045 | 10288 ft | 378 kts | 142° |
| 2026-05-07 14:54 | 50.25854 | 8.04768 | 10045 ft | 372 kts | 129° |
| 2026-05-07 14:54 | 50.24311 | 8.07993 | 10049 ft | 373 kts | 128° |
| 2026-05-07 14:54 | 50.22703 | 8.11192 | 10056 ft | 375 kts | 128° |
| 2026-05-07 14:55 | 50.21114 | 8.14371 | 9366 ft | 371 kts | 128° |
| 2026-05-07 14:55 | 50.19546 | 8.17573 | 8616 ft | 369 kts | 128° |
| 2026-05-07 14:55 | 50.17999 | 8.20725 | 7899 ft | 364 kts | 128° |
| 2026-05-07 14:55 | 50.16452 | 8.23844 | 7236 ft | 360 kts | 128° |
| 2026-05-07 14:56 | 50.14939 | 8.26889 | 7054 ft | 350 kts | 128° |
| 2026-05-07 14:56 | 50.13457 | 8.29876 | 7050 ft | 348 kts | 128° |
| 2026-05-07 14:56 | 50.11983 | 8.32853 | 7050 ft | 347 kts | 127° |
| 2026-05-07 14:56 | 50.10836 | 8.36044 | 7035 ft | 328 kts | 107° |
| 2026-05-07 14:57 | 50.10509 | 8.39417 | 7031 ft | 304 kts | 86° |
| 2026-05-07 14:57 | 50.10883 | 8.42516 | 7034 ft | 281 kts | 69° |
| 2026-05-07 14:57 | 50.11539 | 8.45263 | 7019 ft | 261 kts | 69° |
| 2026-05-07 14:57 | 50.12151 | 8.47851 | 7029 ft | 250 kts | 68° |
| 2026-05-07 14:58 | 50.12759 | 8.50379 | 7033 ft | 248 kts | 68° |
| 2026-05-07 14:58 | 50.13361 | 8.52888 | 7040 ft | 247 kts | 68° |
| 2026-05-07 14:58 | 50.13961 | 8.55400 | 7037 ft | 247 kts | 68° |
| 2026-05-07 14:58 | 50.14560 | 8.57913 | 7032 ft | 248 kts | 68° |
| 2026-05-07 14:59 | 50.15159 | 8.60433 | 7040 ft | 248 kts | 68° |
| 2026-05-07 14:59 | 50.15760 | 8.62954 | 7044 ft | 248 kts | 68° |
| 2026-05-07 14:59 | 50.16358 | 8.65475 | 7037 ft | 247 kts | 68° |
| 2026-05-07 14:59 | 50.16956 | 8.67990 | 7044 ft | 248 kts | 68° |
| 2026-05-07 15:00 | 50.17554 | 8.70512 | 7046 ft | 248 kts | 68° |
| 2026-05-07 15:00 | 50.18152 | 8.73029 | 7039 ft | 248 kts | 68° |
| 2026-05-07 15:00 | 50.18750 | 8.75556 | 7024 ft | 246 kts | 68° |
| 2026-05-07 15:00 | 50.19344 | 8.78063 | 6619 ft | 248 kts | 68° |
| 2026-05-07 15:01 | 50.19937 | 8.80574 | 6332 ft | 246 kts | 68° |
| 2026-05-07 15:01 | 50.20518 | 8.83045 | 6011 ft | 245 kts | 68° |
| 2026-05-07 15:01 | 50.21109 | 8.85560 | 5717 ft | 244 kts | 68° |
| 2026-05-07 15:01 | 50.21687 | 8.88013 | 5408 ft | 242 kts | 68° |
| 2026-05-07 15:02 | 50.22261 | 8.90463 | 5081 ft | 240 kts | 68° |
| 2026-05-07 15:02 | 50.22804 | 8.92922 | 4720 ft | 238 kts | 75° |
| 2026-05-07 15:02 | 50.22603 | 8.95460 | 4309 ft | 240 kts | 119° |
| 2026-05-07 15:02 | 50.21416 | 8.97208 | 3984 ft | 236 kts | 161° |
| 2026-05-07 15:03 | 50.19841 | 8.97290 | 4005 ft | 232 kts | 202° |
| 2026-05-07 15:03 | 50.18467 | 8.95969 | 4014 ft | 234 kts | 220° |
| 2026-05-07 15:03 | 50.17224 | 8.94335 | 4012 ft | 234 kts | 223° |
| 2026-05-07 15:03 | 50.16006 | 8.92658 | 4017 ft | 233 kts | 223° |
| 2026-05-07 15:04 | 50.14791 | 8.90977 | 4021 ft | 233 kts | 224° |
| 2026-05-07 15:04 | 50.13611 | 8.89350 | 4038 ft | 217 kts | 223° |
| 2026-05-07 15:04 | 50.12522 | 8.87858 | 4005 ft | 200 kts | 223° |
| 2026-05-07 15:04 | 50.11524 | 8.86499 | 3992 ft | 181 kts | 223° |
| 2026-05-07 15:05 | 50.10633 | 8.85251 | 3973 ft | 169 kts | 228° |
| 2026-05-07 15:05 | 50.10028 | 8.83727 | 3773 ft | 161 kts | 248° |
| 2026-05-07 15:05 | 50.09610 | 8.82120 | 3589 ft | 161 kts | 250° |
| 2026-05-07 15:05 | 50.09205 | 8.80493 | 3376 ft | 161 kts | 251° |
| 2026-05-07 15:06 | 50.08815 | 8.78856 | 3152 ft | 161 kts | 252° |
| 2026-05-07 15:06 | 50.08427 | 8.77228 | 2930 ft | 161 kts | 252° |
| 2026-05-07 15:06 | 50.08036 | 8.75587 | 2715 ft | 161 kts | 252° |
| 2026-05-07 15:06 | 50.07645 | 8.73948 | 2490 ft | 162 kts | 252° |
| 2026-05-07 15:07 | 50.07254 | 8.72303 | 2267 ft | 161 kts | 252° |
| 2026-05-07 15:07 | 50.06866 | 8.70678 | 2051 ft | 161 kts | 252° |
| 2026-05-07 15:07 | 50.06479 | 8.69049 | 1827 ft | 160 kts | 252° |
| 2026-05-07 15:07 | 50.06089 | 8.67411 | 1610 ft | 162 kts | 251° |
| 2026-05-07 15:08 | 50.05697 | 8.65768 | 1377 ft | 161 kts | 251° |
| 2026-05-07 15:08 | 50.05314 | 8.64153 | 1154 ft | 157 kts | 251° |
| 2026-05-07 15:08 | 50.04945 | 8.62583 | 948 ft | 152 kts | 250° |
| 2026-05-07 15:08 | 50.04580 | 8.61038 | 733 ft | 151 kts | 249° |
| 2026-05-07 15:09 | 50.04213 | 8.59512 | 522 ft | 149 kts | 249° |
| 2026-05-07 15:09 | 50.03854 | 8.58008 | 374 ft | 141 kts | 249° |
| 2026-05-07 15:09 | 50.03590 | 8.56912 | 362 ft | 78 kts | 249° |
| 2026-05-07 15:09 | 50.03445 | 8.56282 | 364 ft | 51 kts | 257° |
| 2026-05-07 15:10 | 50.03459 | 8.55858 | 353 ft | 30 kts | 279° |
| 2026-05-07 15:10 | 50.03516 | 8.55697 | 351 ft | 1 kts | 353° |
| 2026-05-07 15:10 | 50.03534 | 8.55707 | 361 ft | 6 kts | 26° |
| 2026-05-07 15:10 | 50.03572 | 8.55792 | 360 ft | 11 kts | 71° |
| 2026-05-07 15:11 | 50.03596 | 8.55902 | 362 ft | 11 kts | 71° |
| 2026-05-07 15:11 | 50.03612 | 8.55975 | 362 ft | 13 kts | 70° |
| 2026-05-07 15:11 | 50.03673 | 8.56234 | 365 ft | 26 kts | 69° |
| 2026-05-07 15:11 | 50.03719 | 8.56426 | 362 ft | 30 kts | 70° |
| 2026-05-07 15:12 | 50.03789 | 8.56723 | 362 ft | 29 kts | 69° |
| 2026-05-07 15:12 | 50.03881 | 8.57096 | 367 ft | 26 kts | 69° |
| 2026-05-07 15:12 | 50.03942 | 8.57350 | 371 ft | 24 kts | 70° |
| 2026-05-07 15:12 | 50.03980 | 8.57510 | 373 ft | 24 kts | 70° |
| 2026-05-07 15:13 | 50.04037 | 8.57754 | 376 ft | 24 kts | 70° |
| 2026-05-07 15:13 | 50.04095 | 8.58001 | 374 ft | 22 kts | 69° |
| 2026-05-07 15:13 | 50.04158 | 8.58145 | 373 ft | 13 kts | 32° |
| 2026-05-07 15:13 | 50.04240 | 8.58207 | 375 ft | 10 kts | 18° |
| 2026-05-07 15:14 | 50.04271 | 8.58207 | 376 ft | 0 kts | 344° |
| 2026-05-07 15:14 | 50.04272 | 8.58207 | 376 ft | 2 kts | 342° |
| 2026-05-07 15:14 | 50.04334 | 8.58174 | 375 ft | 17 kts | 341° |
| 2026-05-07 15:14 | 50.04455 | 8.58106 | 372 ft | 19 kts | 339° |
| 2026-05-07 15:15 | 50.04585 | 8.58030 | 367 ft | 22 kts | 340° |
| 2026-05-07 15:15 | 50.04707 | 8.57932 | 364 ft | 11 kts | 306° |
| 2026-05-07 15:15 | 50.04711 | 8.57893 | 366 ft | 1 kts | 249° |
| 2026-05-07 15:15 | 50.04689 | 8.57807 | 367 ft | 14 kts | 248° |
| 2026-05-07 15:16 | 50.04654 | 8.57673 | 367 ft | 13 kts | 249° |
| 2026-05-07 15:16 | 50.04646 | 8.57559 | 368 ft | 9 kts | 283° |
| 2026-05-07 15:16 | 50.04662 | 8.57513 | 368 ft | 1 kts | 323° |
| 2026-05-07 15:16 | 50.04672 | 8.57510 | 367 ft | 1 kts | 357° |
| 2026-05-07 15:17 | 50.04693 | 8.57518 | 365 ft | 4 kts | 23° |
| 2026-05-07 15:17 | 50.04719 | 8.57539 | 368 ft | 0 kts | 28° |